createdAt,value
2019-05-17T00:00:37.405Z,81.91
2019-05-17T00:03:06.811Z,81.93
2019-05-17T00:05:37.134Z,81.56
2019-05-17T00:08:04.712Z,81.76
2019-05-17T00:10:32.627Z,81.76
2019-05-17T00:13:00.565Z,82.13
2019-05-17T00:15:29.358Z,82.25
2019-05-17T00:17:57.220Z,82.21
2019-05-17T00:20:26.623Z,81.69
2019-05-17T00:22:54.556Z,81.69
2019-05-17T00:25:22.358Z,81.50
2019-05-17T00:27:50.120Z,81.43
2019-05-17T00:30:18.116Z,81.43
2019-05-17T00:32:47.607Z,81.51
2019-05-17T00:35:17.824Z,81.58
2019-05-17T00:37:46.488Z,82.06
2019-05-17T00:40:16.678Z,82.60
2019-05-17T00:42:46.606Z,82.67
2019-05-17T00:45:17.304Z,82.80
2019-05-17T00:47:46.865Z,82.76
2019-05-17T00:50:17.078Z,82.91
2019-05-17T00:52:47.519Z,82.10
2019-05-17T00:55:17.427Z,82.10
2019-05-17T00:57:47.239Z,82.41
2019-05-17T01:00:17.031Z,82.46
2019-05-17T01:02:46.756Z,82.46
2019-05-17T01:05:17.099Z,82.08
2019-05-17T01:07:47.041Z,82.01
2019-05-17T01:10:16.659Z,82.25
2019-05-17T01:12:44.642Z,82.25
2019-05-17T01:15:12.729Z,82.42
2019-05-17T01:17:41.025Z,82.16
2019-05-17T01:20:09.560Z,82.24
2019-05-17T01:22:37.411Z,82.57
2019-05-17T01:25:06.398Z,83.07
2019-05-17T01:27:34.383Z,83.03
2019-05-17T01:30:02.512Z,82.70
2019-05-17T01:32:30.246Z,82.63
2019-05-17T01:34:58.032Z,82.54
2019-05-17T01:37:27.690Z,82.37
2019-05-17T01:39:57.402Z,81.98
2019-05-17T01:42:26.518Z,81.82
2019-05-17T01:44:56.618Z,82.01
2019-05-17T01:47:24.337Z,82.22
2019-05-17T01:49:52.118Z,82.74
2019-05-17T01:52:20.235Z,83.34
2019-05-17T01:54:47.948Z,83.19
2019-05-17T01:57:16.821Z,82.89
2019-05-17T01:59:46.675Z,82.66
2019-05-17T02:02:18.506Z,82.54
2019-05-17T02:04:46.761Z,82.20
2019-05-17T02:07:17.156Z,82.04
2019-05-17T02:09:44.557Z,81.93
2019-05-17T02:12:13.350Z,81.94
2019-05-17T02:14:41.078Z,82.02
2019-05-17T02:17:08.952Z,82.51
2019-05-17T02:19:37.362Z,82.58
2019-05-17T02:22:07.299Z,82.51
2019-05-17T02:24:37.003Z,82.03
2019-05-17T02:27:04.648Z,81.98
2019-05-17T02:29:32.467Z,82.18
2019-05-17T02:32:03.703Z,82.74
2019-05-17T02:34:33.471Z,82.99
2019-05-17T02:37:02.724Z,83.26
2019-05-17T02:39:32.488Z,83.13
2019-05-17T02:42:02.556Z,83.56
2019-05-17T02:44:33.157Z,83.63
2019-05-17T02:46:59.100Z,83.91
2019-05-17T02:49:26.807Z,84.39
2019-05-17T02:51:54.629Z,84.41
2019-05-17T02:54:23.564Z,84.23
2019-05-17T02:56:53.833Z,83.73
2019-05-17T02:59:23.207Z,83.63
2019-05-17T03:01:52.733Z,83.97
2019-05-17T03:04:23.358Z,83.87
2019-05-17T03:06:53.325Z,84.06
2019-05-17T03:09:22.868Z,83.89
2019-05-17T03:11:52.912Z,83.92
2019-05-17T03:14:22.797Z,83.94
2019-05-17T03:16:49.414Z,84.08
2019-05-17T03:19:17.205Z,84.46
2019-05-17T03:21:45.137Z,84.35
2019-05-17T03:24:13.743Z,84.57
2019-05-17T03:26:42.998Z,84.88
2019-05-17T03:29:13.771Z,84.68
2019-05-17T03:31:49.070Z,84.47
2019-05-17T03:34:17.084Z,84.37
2019-05-17T03:36:46.589Z,84.76
2019-05-17T03:39:12.995Z,84.88
2019-05-17T03:41:42.851Z,85.23
2019-05-17T03:44:13.660Z,85.57
2019-05-17T03:46:42.618Z,86.05
2019-05-17T03:49:13.057Z,85.76
2019-05-17T03:51:42.611Z,85.66
2019-05-17T03:54:13.503Z,85.57
2019-05-17T03:56:42.719Z,85.72
2019-05-17T03:59:12.861Z,86.05
2019-05-17T04:01:43.315Z,86.13
2019-05-17T04:04:12.814Z,86.31
2019-05-17T04:06:39.480Z,86.49
2019-05-17T04:09:07.925Z,86.46
2019-05-17T04:11:36.682Z,86.42
2019-05-17T04:14:05.050Z,85.88
2019-05-17T04:16:33.892Z,85.88
2019-05-17T04:19:03.051Z,86.15
2019-05-17T04:21:34.257Z,86.14
2019-05-17T04:24:03.473Z,86.54
2019-05-17T04:26:32.533Z,86.26
2019-05-17T04:29:03.283Z,85.81
2019-05-17T04:31:34.784Z,87.15
2019-05-17T04:34:02.973Z,87.97
2019-05-17T04:36:32.322Z,88.12
2019-05-17T04:39:02.441Z,88.13
2019-05-17T04:41:41.484Z,88.04
2019-05-17T04:44:02.846Z,89.60
2019-05-17T04:46:32.711Z,87.93
2019-05-17T04:49:02.910Z,89.47
2019-05-17T04:51:32.258Z,88.15
2019-05-17T04:54:03.282Z,88.19
2019-05-17T04:56:33.292Z,89.73
2019-05-17T04:59:03.237Z,89.56
2019-05-17T05:01:32.978Z,91.04
2019-05-17T05:04:03.418Z,90.99
2019-05-17T05:06:32.907Z,90.68
2019-05-17T05:09:02.646Z,90.93
2019-05-17T05:11:32.846Z,91.37
2019-05-17T05:14:02.840Z,91.70
2019-05-17T05:16:32.056Z,91.28
2019-05-17T05:19:02.622Z,91.83
2019-05-17T05:21:32.174Z,92.08
2019-05-17T05:23:59.730Z,92.12
2019-05-17T05:26:27.473Z,92.39
2019-05-17T05:28:55.261Z,91.43
2019-05-17T05:31:23.142Z,90.46
2019-05-17T05:33:52.224Z,90.80
2019-05-17T05:36:22.081Z,91.17
2019-05-17T05:38:51.543Z,91.58
2019-05-17T05:41:19.367Z,93.34
2019-05-17T05:43:47.152Z,92.70
2019-05-17T05:46:14.998Z,92.24
2019-05-17T05:48:42.840Z,92.75
2019-05-17T05:51:13.455Z,92.75
2019-05-17T05:53:42.924Z,92.18
2019-05-17T05:56:13.329Z,93.11
2019-05-17T05:58:42.682Z,93.19
2019-05-17T06:01:12.578Z,92.92
2019-05-17T06:03:41.443Z,92.58
2019-05-17T06:06:12.176Z,93.49
2019-05-17T06:08:41.490Z,93.69
2019-05-17T06:11:12.121Z,94.03
2019-05-17T06:13:41.754Z,93.32
2019-05-17T06:16:11.806Z,93.27
2019-05-17T06:18:39.358Z,92.68
2019-05-17T06:21:07.144Z,92.93
2019-05-17T06:23:34.913Z,92.94
2019-05-17T06:26:04.360Z,93.95
2019-05-17T06:28:32.508Z,93.29
2019-05-17T06:31:02.661Z,93.27
2019-05-17T06:33:31.831Z,93.47
2019-05-17T06:36:02.606Z,94.19
2019-05-17T06:38:32.637Z,94.83
2019-05-17T06:41:01.648Z,94.89
2019-05-17T06:43:32.061Z,94.44
2019-05-17T06:46:01.567Z,94.51
2019-05-17T06:48:31.601Z,93.93
2019-05-17T06:50:59.178Z,94.64
2019-05-17T06:53:26.913Z,94.27
2019-05-17T06:55:54.896Z,95.03
2019-05-17T06:58:22.622Z,94.94
2019-05-17T07:00:50.404Z,94.08
2019-05-17T07:03:19.855Z,95.32
2019-05-17T07:05:50.545Z,93.88
2019-05-17T07:08:20.123Z,94.03
2019-05-17T07:10:50.122Z,94.07
2019-05-17T07:13:19.677Z,95.44
2019-05-17T07:15:50.197Z,95.44
2019-05-17T07:18:19.413Z,94.19
2019-05-17T07:20:50.095Z,92.81
2019-05-17T07:23:19.683Z,92.91
2019-05-17T07:25:50.166Z,92.96
2019-05-17T07:28:19.788Z,93.57
2019-05-17T07:30:47.150Z,93.36
2019-05-17T07:33:15.006Z,93.01
2019-05-17T07:35:42.834Z,91.96
2019-05-17T07:38:11.296Z,92.25
2019-05-17T07:40:39.900Z,92.08
2019-05-17T07:43:13.782Z,92.08
2019-05-17T07:45:40.170Z,91.63
2019-05-17T07:48:09.815Z,91.05
2019-05-17T07:50:39.593Z,91.96
2019-05-17T07:53:06.988Z,91.37
2019-05-17T07:55:34.798Z,90.69
2019-05-17T07:58:02.632Z,90.16
2019-05-17T08:00:30.653Z,90.03
2019-05-17T08:02:59.911Z,90.13
2019-05-17T08:05:29.587Z,89.62
2019-05-17T08:08:00.010Z,89.24
2019-05-17T08:10:29.677Z,88.58
2019-05-17T08:12:59.783Z,88.58
2019-05-17T08:15:27.135Z,88.99
2019-05-17T08:17:54.853Z,87.96
2019-05-17T08:20:22.902Z,87.96
2019-05-17T08:22:50.678Z,86.84
2019-05-17T08:25:20.016Z,86.45
2019-05-17T08:27:50.177Z,83.24
2019-05-17T08:30:20.098Z,82.27
2019-05-17T08:32:50.548Z,77.42
2019-05-17T08:35:19.831Z,77.45
2019-05-17T08:37:49.931Z,75.43
2019-05-17T08:40:19.988Z,75.91
2019-05-17T08:42:49.731Z,74.96
2019-05-17T08:45:17.485Z,72.29
2019-05-17T08:47:45.401Z,70.07
2019-05-17T08:50:13.437Z,70.07
2019-05-17T08:52:41.637Z,71.01
2019-05-17T08:55:10.039Z,71.01
2019-05-17T08:57:39.996Z,69.98
2019-05-17T09:00:10.528Z,67.93
2019-05-17T09:02:40.478Z,67.03
2019-05-17T09:05:09.855Z,69.13
2019-05-17T09:07:39.854Z,68.69
2019-05-17T09:10:10.026Z,70.07
2019-05-17T09:12:37.639Z,70.07
2019-05-17T09:15:06.699Z,70.72
2019-05-17T09:17:34.505Z,71.51
2019-05-17T09:20:02.588Z,71.46
2019-05-17T09:22:30.678Z,71.31
2019-05-17T09:24:59.615Z,70.77
2019-05-17T09:27:30.000Z,71.31
2019-05-17T09:29:57.355Z,71.18
2019-05-17T09:32:25.233Z,70.15
2019-05-17T09:34:52.936Z,70.36
2019-05-17T09:37:22.621Z,70.86
2019-05-17T09:39:50.425Z,70.28
2019-05-17T09:42:20.964Z,71.30
2019-05-17T09:44:49.668Z,71.03
2019-05-17T09:47:20.566Z,70.27
2019-05-17T09:49:50.164Z,70.96
2019-05-17T09:52:20.044Z,70.28
2019-05-17T09:54:50.195Z,69.10
2019-05-17T09:57:20.266Z,67.90
2019-05-17T09:59:49.489Z,69.03
2019-05-17T10:02:17.304Z,69.25
2019-05-17T10:04:45.235Z,69.15
2019-05-17T10:07:13.066Z,68.79
2019-05-17T10:09:40.756Z,68.83
2019-05-17T10:12:09.595Z,69.24
2019-05-17T10:14:37.658Z,67.90
2019-05-17T10:17:05.647Z,66.76
2019-05-17T10:19:33.462Z,64.89
2019-05-17T10:22:01.910Z,64.77
2019-05-17T10:24:37.937Z,65.54
2019-05-17T10:26:59.627Z,66.25
2019-05-17T10:29:29.861Z,66.81
2019-05-17T10:31:57.097Z,66.06
2019-05-17T10:34:26.513Z,64.76
2019-05-17T10:36:55.084Z,64.93
2019-05-17T10:39:22.909Z,65.41
2019-05-17T10:41:50.796Z,65.64
2019-05-17T10:44:19.881Z,66.59
2019-05-17T10:46:47.865Z,66.28
2019-05-17T10:49:15.622Z,66.68
2019-05-17T10:51:43.493Z,66.63
2019-05-17T10:54:11.208Z,66.40
2019-05-17T10:56:39.542Z,67.80
2019-05-17T10:59:09.749Z,67.97
2019-05-17T11:01:37.286Z,67.73
2019-05-17T11:04:05.175Z,67.95
2019-05-17T11:06:32.904Z,67.84
2019-05-17T11:09:00.700Z,67.55
2019-05-17T11:11:28.428Z,67.56
2019-05-17T11:13:56.188Z,67.24
2019-05-17T11:16:24.710Z,67.08
2019-05-17T11:18:52.489Z,66.95
2019-05-17T11:21:20.367Z,66.84
2019-05-17T11:23:48.298Z,67.10
2019-05-17T11:26:16.006Z,67.08
2019-05-17T11:28:43.801Z,67.25
2019-05-17T11:31:11.614Z,67.40
2019-05-17T11:33:39.906Z,67.55
2019-05-17T11:36:07.832Z,67.62
2019-05-17T11:38:35.610Z,66.72
2019-05-17T11:41:19.883Z,67.77
2019-05-17T11:43:33.215Z,68.07
2019-05-17T11:46:00.939Z,68.44
2019-05-17T11:48:28.783Z,68.22
2019-05-17T11:50:56.603Z,68.22
2019-05-17T11:53:24.474Z,67.95
2019-05-17T11:55:53.251Z,68.10
2019-05-17T11:58:21.083Z,68.39
2019-05-17T12:00:48.925Z,68.14
2019-05-17T12:03:16.794Z,68.25
2019-05-17T12:05:44.494Z,68.58
2019-05-17T12:08:12.977Z,68.65
2019-05-17T12:10:41.436Z,67.75
2019-05-17T12:13:09.476Z,68.12
2019-05-17T12:15:44.947Z,67.84
2019-05-17T12:18:06.932Z,67.88
2019-05-17T12:20:34.991Z,68.11
2019-05-17T12:23:02.914Z,68.50
2019-05-17T12:25:30.837Z,68.34
2019-05-17T12:27:59.009Z,67.74
2019-05-17T12:30:26.837Z,67.33
2019-05-17T12:32:54.595Z,67.43
2019-05-17T12:35:22.415Z,67.07
2019-05-17T12:37:50.248Z,66.95
2019-05-17T12:40:18.900Z,66.64
2019-05-17T12:42:46.786Z,66.07
2019-05-17T12:45:14.719Z,66.16
2019-05-17T12:47:42.421Z,65.99
2019-05-17T12:50:10.711Z,66.31
2019-05-17T12:52:38.582Z,66.66
2019-05-17T12:55:06.948Z,66.26
2019-05-17T12:57:34.952Z,66.49
2019-05-17T13:00:03.128Z,66.31
2019-05-17T13:02:30.965Z,65.53
2019-05-17T13:04:58.791Z,65.79
2019-05-17T13:07:26.598Z,64.98
2019-05-17T13:09:55.749Z,65.23
2019-05-17T13:12:23.475Z,64.41
2019-05-17T13:14:52.281Z,64.28
2019-05-17T13:17:19.968Z,63.67
2019-05-17T13:19:47.730Z,63.48
2019-05-17T13:22:15.617Z,62.68
2019-05-17T13:24:43.423Z,63.19
2019-05-17T13:27:11.170Z,62.35
2019-05-17T13:29:39.537Z,62.32
2019-05-17T13:32:07.261Z,62.12
2019-05-17T13:34:35.108Z,60.99
2019-05-17T13:37:02.931Z,61.20
2019-05-17T13:39:31.341Z,61.72
2019-05-17T13:41:59.153Z,62.06
2019-05-17T13:44:27.002Z,62.36
2019-05-17T13:46:54.711Z,61.95
2019-05-17T13:49:22.557Z,61.63
2019-05-17T13:51:50.380Z,61.23
2019-05-17T13:54:18.165Z,61.31
2019-05-17T13:56:46.565Z,60.62
2019-05-17T13:59:14.327Z,61.13
2019-05-17T14:01:42.209Z,61.60
2019-05-17T14:04:09.943Z,61.45
2019-05-17T14:06:37.687Z,61.33
2019-05-17T14:09:06.694Z,61.19
2019-05-17T14:11:34.598Z,60.58
2019-05-17T14:14:03.398Z,60.32
2019-05-17T14:16:34.437Z,59.57
2019-05-17T14:19:00.833Z,58.98
2019-05-17T14:21:28.578Z,59.38
2019-05-17T14:23:56.478Z,58.36
2019-05-17T14:26:25.099Z,58.43
2019-05-17T14:28:52.915Z,57.89
2019-05-17T14:31:21.404Z,57.92
2019-05-17T14:33:49.154Z,56.72
2019-05-17T14:36:16.896Z,57.18
2019-05-17T14:38:44.618Z,57.46
2019-05-17T14:41:12.384Z,58.37
2019-05-17T14:43:40.108Z,58.08
2019-05-17T14:46:08.002Z,58.57
2019-05-17T14:48:35.803Z,58.63
2019-05-17T14:51:03.749Z,57.39
2019-05-17T14:53:31.962Z,57.31
2019-05-17T14:55:59.732Z,57.17
2019-05-17T14:58:27.444Z,55.74
2019-05-17T15:00:55.335Z,55.38
2019-05-17T15:03:23.602Z,55.52
2019-05-17T15:05:51.367Z,54.87
2019-05-17T15:08:19.297Z,55.82
2019-05-17T15:10:47.078Z,55.42
2019-05-17T15:13:14.882Z,54.93
2019-05-17T15:15:42.649Z,55.51
2019-05-17T15:18:10.466Z,55.22
2019-05-17T15:20:38.211Z,55.61
2019-05-17T15:23:06.085Z,55.77
2019-05-17T15:25:33.919Z,54.94
2019-05-17T15:28:01.629Z,56.16
2019-05-17T15:30:29.909Z,56.59
2019-05-17T15:32:57.596Z,56.33
2019-05-17T15:35:25.477Z,55.68
2019-05-17T15:37:53.368Z,56.47
2019-05-17T15:40:21.279Z,55.82
2019-05-17T15:42:49.923Z,56.22
2019-05-17T15:45:17.779Z,55.72
2019-05-17T15:47:45.545Z,56.19
2019-05-17T15:50:13.550Z,55.88
2019-05-17T15:52:41.403Z,55.65
2019-05-17T15:55:10.324Z,56.43
2019-05-17T15:57:39.112Z,56.57
2019-05-17T16:00:07.821Z,56.69
2019-05-17T16:02:35.566Z,55.77
2019-05-17T16:05:04.569Z,56.24
2019-05-17T16:07:32.287Z,56.10
2019-05-17T16:10:00.041Z,55.64
2019-05-17T16:12:27.809Z,55.33
2019-05-17T16:14:55.563Z,55.28
2019-05-17T16:17:23.823Z,55.88
2019-05-17T16:19:51.633Z,56.14
2019-05-17T16:22:19.445Z,56.22
2019-05-17T16:24:47.425Z,54.55
2019-05-17T16:27:15.447Z,53.52
2019-05-17T16:29:43.179Z,53.03
2019-05-17T16:32:10.972Z,52.92
2019-05-17T16:34:38.674Z,52.45
2019-05-17T16:37:06.424Z,52.26
2019-05-17T16:39:34.244Z,51.68
2019-05-17T16:42:02.126Z,52.51
2019-05-17T16:44:29.851Z,52.83
2019-05-17T16:46:57.815Z,52.76
2019-05-17T16:49:28.400Z,53.54
2019-05-17T16:51:55.652Z,53.44
2019-05-17T16:54:23.361Z,52.79
2019-05-17T16:56:51.162Z,52.79
2019-05-17T16:59:18.950Z,53.11
2019-05-17T17:01:46.786Z,52.89
2019-05-17T17:04:18.224Z,53.17
2019-05-17T17:06:46.618Z,53.17
2019-05-17T17:09:14.420Z,52.68
2019-05-17T17:11:42.147Z,52.69
2019-05-17T17:14:10.136Z,52.72
2019-05-17T17:16:37.905Z,52.64
2019-05-17T17:19:05.686Z,53.22
2019-05-17T17:21:33.716Z,53.11
2019-05-17T17:24:01.642Z,52.30
2019-05-17T17:26:29.652Z,52.41
2019-05-17T17:28:57.537Z,52.95
2019-05-17T17:31:25.663Z,52.76
2019-05-17T17:33:56.153Z,52.90
2019-05-17T17:36:23.978Z,52.93
2019-05-17T17:38:51.759Z,53.52
2019-05-17T17:41:19.654Z,54.32
2019-05-17T17:43:58.105Z,54.36
2019-05-17T17:46:17.124Z,54.26
2019-05-17T17:48:45.868Z,54.53
2019-05-17T17:51:13.904Z,54.89
2019-05-17T17:53:41.659Z,55.66
2019-05-17T17:56:13.391Z,55.39
2019-05-17T17:58:40.593Z,55.58
2019-05-17T18:01:08.445Z,56.19
2019-05-17T18:03:36.757Z,56.30
2019-05-17T18:06:05.015Z,56.90
2019-05-17T18:08:34.711Z,57.25
2019-05-17T18:11:02.686Z,56.83
2019-05-17T18:13:30.529Z,57.29
2019-05-17T18:15:58.349Z,57.51
2019-05-17T18:18:26.103Z,57.91
2019-05-17T18:20:53.818Z,58.14
2019-05-17T18:23:23.649Z,57.76
2019-05-17T18:25:51.723Z,57.75
2019-05-17T18:28:20.291Z,58.53
2019-05-17T18:30:48.047Z,58.57
2019-05-17T18:33:16.548Z,59.33
2019-05-17T18:35:44.522Z,59.62
2019-05-17T18:38:15.671Z,59.87
2019-05-17T18:40:43.572Z,60.66
2019-05-17T18:43:11.285Z,61.17
2019-05-17T18:45:39.049Z,61.21
2019-05-17T18:48:07.355Z,61.28
2019-05-17T18:50:35.406Z,61.68
2019-05-17T18:53:03.814Z,62.08
2019-05-17T18:55:32.396Z,62.06
2019-05-17T18:58:00.901Z,61.84
2019-05-17T19:00:28.827Z,61.53
2019-05-17T19:02:56.533Z,61.32
2019-05-17T19:05:24.410Z,61.19
2019-05-17T19:07:52.145Z,60.96
2019-05-17T19:10:20.137Z,60.62
2019-05-17T19:12:48.045Z,60.21
2019-05-17T19:15:17.031Z,60.16
2019-05-17T19:17:44.745Z,59.94
2019-05-17T19:20:14.401Z,59.73
2019-05-17T19:22:42.371Z,59.45
2019-05-17T19:25:11.007Z,59.20
2019-05-17T19:27:38.920Z,59.03
2019-05-17T19:30:09.171Z,58.90
2019-05-17T19:32:37.131Z,58.79
2019-05-17T19:35:06.263Z,58.70
2019-05-17T19:37:34.577Z,58.61
2019-05-17T19:40:03.595Z,58.58
2019-05-17T19:42:31.674Z,58.95
2019-05-17T19:44:59.782Z,57.98
2019-05-17T19:47:27.544Z,58.51
2019-05-17T19:49:55.333Z,58.64
2019-05-17T19:52:23.321Z,58.33
2019-05-17T19:54:51.091Z,58.70
2019-05-17T19:57:18.821Z,58.54
2019-05-17T19:59:46.580Z,58.68
2019-05-17T20:02:14.428Z,58.59
2019-05-17T20:04:42.173Z,58.81
2019-05-17T20:07:09.982Z,58.76
2019-05-17T20:09:37.685Z,58.61
2019-05-17T20:12:05.571Z,58.50
2019-05-17T20:14:33.262Z,58.57
2019-05-17T20:17:01.629Z,58.54
2019-05-17T20:19:29.348Z,58.64
2019-05-17T20:21:57.350Z,58.66
2019-05-17T20:24:25.128Z,58.97
2019-05-17T20:26:53.455Z,59.08
2019-05-17T20:29:21.165Z,59.20
2019-05-17T20:31:48.992Z,59.34
2019-05-17T20:34:16.706Z,59.87
2019-05-17T20:36:44.577Z,60.26
2019-05-17T20:39:12.487Z,60.91
2019-05-17T20:41:40.254Z,61.01
2019-05-17T20:44:08.045Z,60.85
2019-05-17T20:46:35.920Z,60.63
2019-05-17T20:49:03.746Z,60.72
2019-05-17T20:51:31.585Z,60.60
2019-05-17T20:53:59.413Z,60.67
2019-05-17T20:56:32.938Z,60.73
2019-05-17T20:58:57.523Z,61.13
2019-05-17T21:01:25.273Z,61.69
2019-05-17T21:03:53.082Z,62.78
2019-05-17T21:06:21.785Z,63.05
2019-05-17T21:08:49.527Z,63.13
2019-05-17T21:11:17.411Z,63.23
2019-05-17T21:13:45.343Z,63.53
2019-05-17T21:16:13.115Z,63.93
2019-05-17T21:18:40.999Z,64.33
2019-05-17T21:21:08.798Z,64.61
2019-05-17T21:23:36.605Z,64.64
2019-05-17T21:26:04.582Z,64.84
2019-05-17T21:28:32.333Z,64.96
2019-05-17T21:31:00.161Z,65.16
2019-05-17T21:33:28.019Z,65.26
2019-05-17T21:35:55.738Z,65.45
2019-05-17T21:38:24.096Z,65.83
2019-05-17T21:40:51.910Z,66.06
2019-05-17T21:43:20.290Z,66.35
2019-05-17T21:46:01.088Z,66.66
2019-05-17T21:48:17.823Z,66.83
2019-05-17T21:50:45.637Z,66.98
2019-05-17T21:53:13.481Z,67.22
2019-05-17T21:55:41.276Z,67.49
2019-05-17T21:58:09.988Z,68.41
2019-05-17T22:01:21.953Z,69.65
2019-05-17T22:03:49.823Z,69.59
2019-05-17T22:06:17.639Z,70.15
2019-05-17T22:08:45.663Z,69.51
2019-05-17T22:11:13.440Z,69.71
2019-05-17T22:13:41.898Z,70.29
2019-05-17T22:16:19.189Z,70.51
2019-05-17T22:18:39.613Z,71.02
2019-05-17T22:21:08.018Z,70.81
2019-05-17T22:23:35.956Z,70.62
2019-05-17T22:26:04.088Z,71.07
2019-05-17T22:28:32.814Z,72.20
2019-05-17T22:31:00.501Z,72.63
2019-05-17T22:33:28.416Z,72.51
2019-05-17T22:35:56.184Z,71.94
2019-05-17T22:38:24.002Z,72.34
2019-05-17T22:40:51.808Z,72.25
2019-05-17T22:43:19.556Z,72.25
2019-05-17T22:45:47.483Z,72.72
2019-05-17T22:48:16.148Z,72.80
2019-05-17T22:50:44.373Z,73.12
2019-05-17T22:53:13.395Z,73.28
2019-05-17T22:55:41.287Z,73.21
2019-05-17T22:58:09.041Z,73.03
2019-05-17T23:00:36.811Z,73.65
2019-05-17T23:03:04.666Z,73.55
2019-05-17T23:05:32.639Z,74.14
2019-05-17T23:08:00.383Z,74.65
2019-05-17T23:10:28.358Z,74.91
2019-05-17T23:12:56.203Z,75.85
2019-05-17T23:15:26.018Z,74.95
2019-05-17T23:17:53.760Z,74.73
2019-05-17T23:20:21.672Z,74.74
2019-05-17T23:22:49.398Z,74.66
2019-05-17T23:25:17.189Z,74.68
2019-05-17T23:27:44.964Z,74.93
2019-05-17T23:30:14.091Z,74.93
2019-05-17T23:32:41.831Z,75.36
2019-05-17T23:35:09.949Z,75.13
2019-05-17T23:37:37.660Z,75.19
2019-05-17T23:40:05.759Z,75.92
2019-05-17T23:42:33.560Z,78.32
2019-05-17T23:45:01.416Z,78.62
2019-05-17T23:47:29.185Z,78.62
2019-05-17T23:49:56.997Z,80.07
2019-05-17T23:52:24.772Z,80.51
2019-05-17T23:54:52.562Z,80.29
2019-05-17T23:57:21.025Z,79.60
2019-05-17T23:59:48.826Z,81.24
